Time;durP1;ratioP1;P1;durP2;ratioP2;P2;SDS_P1;SDS_P2;PMS_P1;PMS_P2;Temp;Humidity;BMP_temperature;BMP_pressure;BME280_temperature;BME280_humidity;BME280_pressure;Samples;Min_cycle;Max_cycle;Signal;HPM_P1;HPM_P2
2022/08/21 00:01:28;;;;;;;14.77;3.22;;;;;;;;;;6270018;22;20008;-88
2022/08/21 00:03:55;;;;;;;12.15;3.50;;;;;;;;;;6271376;22;20011;-89
2022/08/21 00:06:22;;;;;;;14.68;3.50;;;;;;;;;;6269357;22;20003;-88
2022/08/21 00:08:48;;;;;;;10.93;3.40;;;;;;;;;;6273179;22;19996;-88
2022/08/21 00:11:14;;;;;;;8.18;3.40;;;;;;;;;;6269530;22;20012;-89
2022/08/21 00:13:41;;;;;;;9.88;3.45;;;;;;;;;;6271200;22;20003;-88
2022/08/21 00:16:07;;;;;;;12.55;3.97;;;;;;;;;;6267609;22;20018;-89
2022/08/21 00:18:33;;;;;;;8.55;3.25;;;;;;;;;;6245574;22;20014;-88
2022/08/21 00:20:59;;;;;;;10.20;3.30;;;;;;;;;;6269362;22;20055;-88
2022/08/21 00:23:26;;;;;;;9.38;2.80;;;;;;;;;;6244941;22;20030;-89
2022/08/21 00:25:52;;;;;;;6.85;3.20;;;;;;;;;;6267281;22;20351;-89
2022/08/21 00:28:18;;;;;;;12.82;3.30;;;;;;;;;;6268108;22;20061;-88
2022/08/21 00:30:50;;;;;;;17.52;3.50;;;;;;;;;;6244267;22;20066;-88
2022/08/21 00:33:16;;;;;;;9.48;3.55;;;;;;;;;;6244555;22;20349;-88
2022/08/21 00:35:43;;;;;;;7.38;3.28;;;;;;;;;;6266951;22;20038;-88
2022/08/21 00:38:09;;;;;;;16.63;3.88;;;;;;;;;;6269827;22;20000;-88
2022/08/21 00:40:38;;;;;;;8.18;3.65;;;;;;;;;;6244351;22;20040;-89
2022/08/21 00:43:06;;;;;;;9.98;4.15;;;;;;;;;;6268809;22;20000;-88
2022/08/21 00:45:32;;;;;;;10.93;3.10;;;;;;;;;;6267933;22;20011;-88
2022/08/21 00:47:58;;;;;;;12.93;3.70;;;;;;;;;;6244736;22;20011;-88
2022/08/21 00:50:26;;;;;;;11.77;3.38;;;;;;;;;;6244665;22;20106;-89
2022/08/21 00:52:52;;;;;;;12.05;3.83;;;;;;;;;;6268356;22;20419;-89
2022/08/21 00:55:19;;;;;;;10.20;3.15;;;;;;;;;;6242992;22;20359;-88
2022/08/21 00:57:47;;;;;;;10.00;3.50;;;;;;;;;;6269393;22;20008;-88
2022/08/21 01:00:16;;;;;;;12.85;4.03;;;;;;;;;;6270059;22;20003;-89
2022/08/21 01:02:42;;;;;;;8.45;3.35;;;;;;;;;;6269225;22;20008;-88
2022/08/21 01:05:09;;;;;;;9.55;3.60;;;;;;;;;;6271247;22;20390;-88
2022/08/21 01:07:35;;;;;;;9.93;4.13;;;;;;;;;;6266922;22;20023;-88
2022/08/21 01:10:01;;;;;;;17.08;4.32;;;;;;;;;;6273074;22;20328;-88
2022/08/21 01:12:27;;;;;;;12.30;3.97;;;;;;;;;;6268404;22;20011;-88
2022/08/21 01:14:53;;;;;;;10.38;3.88;;;;;;;;;;6270511;22;20327;-88
2022/08/21 01:17:21;;;;;;;13.18;4.80;;;;;;;;;;6242811;22;20016;-88
2022/08/21 01:19:47;;;;;;;8.88;4.15;;;;;;;;;;6270033;22;20415;-88
2022/08/21 01:22:13;;;;;;;7.75;3.72;;;;;;;;;;6269938;22;20030;-88
2022/08/21 01:24:39;;;;;;;13.02;5.05;;;;;;;;;;6270230;22;20008;-88
2022/08/21 01:27:05;;;;;;;12.85;4.38;;;;;;;;;;6245052;22;20248;-88
2022/08/21 01:29:38;;;;;;;18.98;4.57;;;;;;;;;;6267713;22;20023;-88
2022/08/21 01:32:06;;;;;;;11.45;4.63;;;;;;;;;;6268345;22;20011;-89
2022/08/21 01:34:33;;;;;;;12.93;4.22;;;;;;;;;;6269452;22;20115;-88
2022/08/21 01:36:59;;;;;;;11.38;4.68;;;;;;;;;;6267789;22;20065;-88
2022/08/21 01:39:25;;;;;;;9.90;4.80;;;;;;;;;;6241620;22;20011;-88
2022/08/21 01:41:51;;;;;;;13.35;4.82;;;;;;;;;;6267645;22;20008;-88
2022/08/21 01:44:21;;;;;;;14.23;4.30;;;;;;;;;;6265713;22;20016;-88
2022/08/21 01:46:47;;;;;;;21.75;4.88;;;;;;;;;;6264595;22;20014;-88
2022/08/21 01:49:14;;;;;;;8.98;4.63;;;;;;;;;;6244926;22;20453;-88
2022/08/21 01:51:40;;;;;;;13.85;4.82;;;;;;;;;;6246391;22;20092;-88
2022/08/21 01:54:06;;;;;;;11.55;5.13;;;;;;;;;;6247196;22;20011;-88
2022/08/21 01:56:36;;;;;;;15.15;5.95;;;;;;;;;;6245965;22;20015;-88
2022/08/21 01:59:02;;;;;;;11.93;5.47;;;;;;;;;;6270825;22;20008;-88
2022/08/21 02:01:28;;;;;;;16.58;5.15;;;;;;;;;;6244241;22;20015;-88
2022/08/21 02:03:54;;;;;;;9.35;5.22;;;;;;;;;;6247689;22;20056;-88
2022/08/21 02:06:20;;;;;;;20.77;6.55;;;;;;;;;;6270422;22;20343;-88
2022/08/21 02:08:47;;;;;;;16.25;5.72;;;;;;;;;;6247145;22;20052;-88
2022/08/21 02:11:13;;;;;;;17.20;6.07;;;;;;;;;;6270960;22;20340;-88
2022/08/21 02:13:39;;;;;;;18.90;5.40;;;;;;;;;;6271719;22;19999;-88
2022/08/21 02:16:06;;;;;;;12.45;6.22;;;;;;;;;;6267013;22;20011;-88
2022/08/21 02:18:32;;;;;;;14.77;6.30;;;;;;;;;;6272480;22;20324;-88
2022/08/21 02:20:58;;;;;;;18.63;7.60;;;;;;;;;;6270241;22;20041;-88
2022/08/21 02:23:25;;;;;;;18.08;6.80;;;;;;;;;;6245978;22;20003;-88
2022/08/21 02:25:50;;;;;;;20.15;7.35;;;;;;;;;;6245243;22;20343;-88
2022/08/21 02:28:17;;;;;;;21.50;7.25;;;;;;;;;;6245982;22;20022;-88
2022/08/21 02:30:44;;;;;;;14.68;7.03;;;;;;;;;;6270441;22;20370;-88
2022/08/21 02:33:11;;;;;;;17.33;6.28;;;;;;;;;;6298348;22;20003;-88
2022/08/21 02:35:38;;;;;;;19.23;6.07;;;;;;;;;;6270411;22;20072;-89
2022/08/21 02:38:05;;;;;;;12.23;5.85;;;;;;;;;;6247126;22;20489;-88
2022/08/21 02:40:33;;;;;;;15.98;6.05;;;;;;;;;;6270187;22;20045;-88
2022/08/21 02:42:59;;;;;;;16.38;6.55;;;;;;;;;;6271405;22;20378;-88
2022/08/21 02:45:27;;;;;;;10.25;5.40;;;;;;;;;;6245156;22;20320;-88
2022/08/21 02:47:55;;;;;;;18.40;6.68;;;;;;;;;;6270421;22;20007;-88
2022/08/21 02:50:22;;;;;;;17.92;6.05;;;;;;;;;;6270217;22;20053;-88
2022/08/21 02:52:49;;;;;;;13.88;5.93;;;;;;;;;;6271899;22;20022;-88
2022/08/21 02:55:15;;;;;;;13.93;5.75;;;;;;;;;;6245964;22;20459;-88
2022/08/21 02:57:41;;;;;;;21.73;6.35;;;;;;;;;;6299156;22;20003;-88
2022/08/21 03:00:09;;;;;;;11.55;6.05;;;;;;;;;;6245538;22;20141;-89
2022/08/21 03:02:35;;;;;;;13.63;6.03;;;;;;;;;;6271591;22;20444;-88
2022/08/21 03:05:01;;;;;;;15.23;5.70;;;;;;;;;;6244712;22;20314;-88
2022/08/21 03:07:27;;;;;;;15.15;5.88;;;;;;;;;;6246031;22;20015;-88
2022/08/21 03:09:53;;;;;;;18.88;5.57;;;;;;;;;;6297689;22;20050;-88
2022/08/21 03:12:19;;;;;;;14.40;5.32;;;;;;;;;;6246000;22;20386;-88
2022/08/21 03:14:45;;;;;;;20.85;7.57;;;;;;;;;;6245567;22;20011;-88
2022/08/21 03:17:11;;;;;;;13.73;5.75;;;;;;;;;;6245167;22;20052;-88
2022/08/21 03:19:37;;;;;;;15.43;6.13;;;;;;;;;;6245642;22;20101;-89
2022/08/21 03:22:03;;;;;;;13.10;5.32;;;;;;;;;;6271141;22;20018;-88
2022/08/21 03:24:29;;;;;;;12.05;5.57;;;;;;;;;;6271629;22;20462;-88
2022/08/21 03:26:55;;;;;;;18.45;5.55;;;;;;;;;;6269631;22;20376;-88
2022/08/21 03:29:21;;;;;;;14.38;6.25;;;;;;;;;;6246437;22;20011;-88
2022/08/21 03:31:47;;;;;;;14.27;5.75;;;;;;;;;;6246140;22;20061;-88
2022/08/21 03:34:13;;;;;;;12.55;6.20;;;;;;;;;;6248073;22;20011;-88
2022/08/21 03:36:39;;;;;;;13.13;6.00;;;;;;;;;;6271345;22;20042;-89
2022/08/21 03:39:06;;;;;;;15.85;6.68;;;;;;;;;;6274068;22;20380;-88
2022/08/21 03:41:32;;;;;;;19.17;6.80;;;;;;;;;;6248206;22;20017;-88
2022/08/21 03:43:58;;;;;;;16.50;7.30;;;;;;;;;;6246893;22;20398;-88
2022/08/21 03:46:25;;;;;;;16.13;6.32;;;;;;;;;;6247167;22;20014;-88
2022/08/21 03:48:52;;;;;;;15.50;6.05;;;;;;;;;;6246401;22;20003;-89
2022/08/21 03:51:18;;;;;;;20.35;8.40;;;;;;;;;;6243419;22;20016;-89
2022/08/21 03:53:44;;;;;;;18.20;7.22;;;;;;;;;;6268433;22;20064;-88
2022/08/21 03:56:11;;;;;;;18.67;7.20;;;;;;;;;;6242206;22;20255;-88
2022/08/21 03:58:38;;;;;;;17.10;7.60;;;;;;;;;;6267299;22;20008;-89
2022/08/21 04:01:05;;;;;;;21.02;7.20;;;;;;;;;;6243507;22;20008;-88
2022/08/21 04:03:31;;;;;;;14.05;6.43;;;;;;;;;;6267452;22;20010;-89
2022/08/21 04:05:57;;;;;;;19.83;8.23;;;;;;;;;;6242357;22;20099;-88
2022/08/21 04:08:23;;;;;;;26.25;7.60;;;;;;;;;;6241360;22;20004;-88
2022/08/21 04:10:51;;;;;;;19.80;7.07;;;;;;;;;;6242325;22;20018;-88
2022/08/21 04:13:17;;;;;;;14.55;7.30;;;;;;;;;;6266431;22;20094;-88
2022/08/21 04:15:43;;;;;;;17.42;6.47;;;;;;;;;;6266941;22;20003;-88
2022/08/21 04:18:10;;;;;;;11.57;7.15;;;;;;;;;;6242007;22;20057;-89
2022/08/21 04:20:36;;;;;;;17.75;6.72;;;;;;;;;;6242430;22;20478;-88
2022/08/21 04:23:03;;;;;;;11.23;6.00;;;;;;;;;;6241557;22;20054;-88
2022/08/21 04:25:29;;;;;;;15.20;6.85;;;;;;;;;;6266801;22;20012;-88
2022/08/21 04:27:55;;;;;;;19.90;7.57;;;;;;;;;;6241454;22;20016;-89
2022/08/21 04:30:21;;;;;;;20.17;7.47;;;;;;;;;;6241678;22;20012;-88
2022/08/21 04:32:48;;;;;;;18.70;6.97;;;;;;;;;;6241473;22;20453;-88
2022/08/21 04:35:14;;;;;;;18.30;6.53;;;;;;;;;;6268922;22;20074;-88
2022/08/21 04:37:41;;;;;;;16.27;6.60;;;;;;;;;;6241643;22;20139;-88
2022/08/21 04:40:09;;;;;;;13.45;6.07;;;;;;;;;;6266427;22;20004;-88
2022/08/21 04:42:41;;;;;;;14.82;5.82;;;;;;;;;;6266300;22;20004;-88
2022/08/21 04:45:07;;;;;;;12.73;5.65;;;;;;;;;;6266744;22;20008;-88
2022/08/21 04:47:33;;;;;;;18.52;5.38;;;;;;;;;;6265936;22;20026;-88
2022/08/21 04:49:59;;;;;;;19.33;6.53;;;;;;;;;;6246798;22;20126;-88
2022/08/21 04:52:25;;;;;;;12.02;4.95;;;;;;;;;;6270968;22;20035;-88
2022/08/21 04:54:52;;;;;;;12.02;5.53;;;;;;;;;;6273215;22;20490;-89
2022/08/21 04:57:18;;;;;;;9.55;4.57;;;;;;;;;;6244770;22;20473;-89
2022/08/21 04:59:49;;;;;;;12.40;4.40;;;;;;;;;;6272193;22;20431;-88
2022/08/21 05:02:15;;;;;;;14.15;4.75;;;;;;;;;;6272829;22;20405;-88
2022/08/21 05:04:52;;;;;;;10.68;4.60;;;;;;;;;;6298249;22;20009;-89
2022/08/21 05:07:28;;;;;;;11.32;4.40;;;;;;;;;;6272956;22;20034;-88
2022/08/21 05:09:54;;;;;;;12.98;4.35;;;;;;;;;;6271119;22;20018;-89
2022/08/21 05:12:21;;;;;;;20.95;5.57;;;;;;;;;;6246970;22;20102;-88
2022/08/21 05:14:47;;;;;;;17.40;4.13;;;;;;;;;;6271262;22;20439;-89
2022/08/21 05:17:13;;;;;;;13.00;4.18;;;;;;;;;;6271913;22;20435;-89
2022/08/21 05:19:39;;;;;;;15.98;4.32;;;;;;;;;;6247349;22;20046;-89
2022/08/21 05:22:05;;;;;;;20.55;4.53;;;;;;;;;;6271173;22;20489;-89
2022/08/21 05:24:32;;;;;;;13.13;4.43;;;;;;;;;;6272518;22;20447;-89
2022/08/21 05:26:58;;;;;;;13.75;4.95;;;;;;;;;;6270036;22;20011;-89
2022/08/21 05:29:24;;;;;;;9.75;3.88;;;;;;;;;;6246626;22;20007;-88
2022/08/21 05:31:50;;;;;;;10.85;4.22;;;;;;;;;;6245172;22;20081;-88
2022/08/21 05:34:23;;;;;;;11.10;4.18;;;;;;;;;;6272469;22;20015;-88
2022/08/21 05:36:49;;;;;;;10.23;4.68;;;;;;;;;;6270168;22;20431;-88
2022/08/21 05:39:15;;;;;;;9.95;3.95;;;;;;;;;;6272232;22;19999;-88
2022/08/21 05:41:41;;;;;;;10.25;3.92;;;;;;;;;;6270235;22;20466;-89
2022/08/21 05:44:07;;;;;;;15.43;4.28;;;;;;;;;;6246827;22;20011;-88
2022/08/21 05:46:33;;;;;;;7.82;3.97;;;;;;;;;;6270837;22;20512;-88
2022/08/21 05:48:59;;;;;;;14.63;3.78;;;;;;;;;;6245087;22;20419;-88
2022/08/21 05:51:31;;;;;;;7.30;3.47;;;;;;;;;;6266860;22;20111;-88
2022/08/21 05:53:57;;;;;;;10.43;4.10;;;;;;;;;;6241079;22;20080;-88
2022/08/21 05:56:23;;;;;;;9.85;3.47;;;;;;;;;;6265809;22;20027;-89
2022/08/21 05:58:49;;;;;;;11.25;4.05;;;;;;;;;;6239961;22;20007;-89
2022/08/21 06:01:15;;;;;;;7.43;3.65;;;;;;;;;;6240148;22;20014;-89
2022/08/21 06:03:42;;;;;;;9.60;4.10;;;;;;;;;;6240631;22;20467;-89
2022/08/21 06:06:09;;;;;;;13.23;3.53;;;;;;;;;;6240691;22;20014;-89
2022/08/21 06:08:35;;;;;;;14.45;4.32;;;;;;;;;;6267653;22;20045;-89
2022/08/21 06:11:02;;;;;;;10.07;3.45;;;;;;;;;;6240864;22;20666;-88
2022/08/21 06:13:29;;;;;;;5.53;3.10;;;;;;;;;;6268015;22;20379;-89
2022/08/21 06:16:08;;;;;;;11.48;3.50;;;;;;;;;;6265443;22;20008;-88
2022/08/21 06:18:35;;;;;;;13.80;4.35;;;;;;;;;;6266612;22;20015;-89
2022/08/21 06:21:01;;;;;;;15.88;3.58;;;;;;;;;;6266480;22;19999;-89
2022/08/21 06:23:27;;;;;;;12.48;3.35;;;;;;;;;;6265019;22;20004;-89
2022/08/21 06:25:53;;;;;;;12.18;3.40;;;;;;;;;;6265920;22;20022;-88
2022/08/21 06:28:19;;;;;;;13.55;3.63;;;;;;;;;;6240353;22;20093;-89
2022/08/21 06:30:45;;;;;;;9.07;3.72;;;;;;;;;;6240095;22;20451;-89
2022/08/21 06:33:11;;;;;;;8.02;3.30;;;;;;;;;;6239889;22;20381;-89
2022/08/21 06:35:38;;;;;;;13.25;3.33;;;;;;;;;;6240022;22;20070;-89
2022/08/21 06:38:04;;;;;;;13.02;3.50;;;;;;;;;;6266623;22;20008;-88
2022/08/21 06:40:30;;;;;;;13.35;3.45;;;;;;;;;;6239969;22;20436;-88
2022/08/21 06:42:57;;;;;;;13.57;4.13;;;;;;;;;;6266454;22;20127;-89
2022/08/21 06:45:24;;;;;;;8.90;3.20;;;;;;;;;;6264515;22;20008;-89
2022/08/21 06:47:50;;;;;;;12.43;3.63;;;;;;;;;;6266999;22;20008;-89
2022/08/21 06:50:16;;;;;;;12.40;3.50;;;;;;;;;;6241685;22;20102;-89
2022/08/21 06:52:42;;;;;;;10.07;3.45;;;;;;;;;;6266250;22;20007;-88
2022/08/21 06:55:09;;;;;;;8.02;2.95;;;;;;;;;;6266018;22;20374;-89
2022/08/21 06:57:35;;;;;;;9.32;3.00;;;;;;;;;;6265588;22;20436;-89
2022/08/21 07:00:01;;;;;;;9.80;2.90;;;;;;;;;;6240927;22;20004;-89
2022/08/21 07:02:27;;;;;;;12.85;2.55;;;;;;;;;;6239916;22;20087;-89
2022/08/21 07:04:53;;;;;;;8.93;3.03;;;;;;;;;;6240359;22;20039;-89
2022/08/21 07:07:19;;;;;;;11.68;3.75;;;;;;;;;;6243437;22;20067;-89
2022/08/21 07:09:45;;;;;;;9.10;3.03;;;;;;;;;;6243281;22;20218;-89
2022/08/21 07:12:11;;;;;;;8.57;2.63;;;;;;;;;;6270055;22;20095;-88
2022/08/21 07:14:37;;;;;;;10.23;3.03;;;;;;;;;;6242662;22;20527;-89
2022/08/21 07:17:03;;;;;;;10.45;2.70;;;;;;;;;;6269516;22;20004;-89
2022/08/21 07:19:29;;;;;;;15.95;3.45;;;;;;;;;;6269896;22;20533;-89
2022/08/21 07:22:01;;;;;;;9.80;3.10;;;;;;;;;;6242558;22;20003;-89
2022/08/21 07:24:28;;;;;;;12.15;4.05;;;;;;;;;;6269321;22;20011;-89
2022/08/21 07:26:54;;;;;;;12.60;2.17;;;;;;;;;;6240196;22;20121;-89
2022/08/21 07:29:20;;;;;;;15.15;4.45;;;;;;;;;;6243826;22;20012;-90
2022/08/21 07:31:46;;;;;;;11.25;3.03;;;;;;;;;;6267810;22;20094;-89
2022/08/21 07:34:12;;;;;;;10.75;2.90;;;;;;;;;;6269847;22;20012;-89
2022/08/21 07:36:38;;;;;;;10.05;2.50;;;;;;;;;;6268030;22;20003;-89
2022/08/21 07:39:04;;;;;;;7.53;2.72;;;;;;;;;;6244098;22;20008;-89
2022/08/21 07:41:31;;;;;;;10.77;2.75;;;;;;;;;;6243641;22;20012;-89
2022/08/21 07:43:58;;;;;;;11.48;2.97;;;;;;;;;;6243200;22;20012;-89
2022/08/21 07:46:24;;;;;;;6.03;2.60;;;;;;;;;;6269640;22;20087;-89
2022/08/21 07:48:51;;;;;;;9.35;2.53;;;;;;;;;;6269124;22;20383;-88
2022/08/21 07:51:17;;;;;;;11.55;2.67;;;;;;;;;;6244039;22;20511;-89
2022/08/21 07:53:47;;;;;;;12.73;3.40;;;;;;;;;;6269651;22;20046;-89
2022/08/21 07:56:13;;;;;;;9.18;3.22;;;;;;;;;;6270219;22;20012;-89
2022/08/21 07:58:39;;;;;;;15.00;3.42;;;;;;;;;;6268462;22;20225;-89
2022/08/21 08:01:06;;;;;;;7.15;2.03;;;;;;;;;;6244133;22;20007;-89
2022/08/21 08:03:32;;;;;;;8.60;2.40;;;;;;;;;;6265735;22;20011;-89
2022/08/21 08:05:59;;;;;;;12.02;2.35;;;;;;;;;;6267572;22;20012;-89
2022/08/21 08:08:25;;;;;;;7.00;2.33;;;;;;;;;;6242072;22;20412;-89
2022/08/21 08:10:52;;;;;;;7.93;2.22;;;;;;;;;;6268178;22;20432;-89
2022/08/21 08:13:18;;;;;;;8.85;2.05;;;;;;;;;;6267916;22;20007;-89
2022/08/21 08:15:44;;;;;;;10.90;2.60;;;;;;;;;;6268409;22;20423;-89
2022/08/21 08:18:10;;;;;;;8.30;2.25;;;;;;;;;;6266474;22;20047;-89
2022/08/21 08:20:36;;;;;;;5.93;2.08;;;;;;;;;;6241164;22;20035;-89
2022/08/21 08:23:02;;;;;;;6.22;2.10;;;;;;;;;;6266303;22;20004;-89
2022/08/21 08:25:28;;;;;;;10.15;2.42;;;;;;;;;;6266207;22;20007;-89
2022/08/21 08:27:54;;;;;;;5.97;2.28;;;;;;;;;;6268288;22;20018;-89
2022/08/21 08:30:21;;;;;;;10.52;2.40;;;;;;;;;;6240549;22;20098;-89
2022/08/21 08:32:48;;;;;;;11.20;2.20;;;;;;;;;;6266647;22;20010;-89
2022/08/21 08:35:14;;;;;;;9.27;2.45;;;;;;;;;;6266057;22;20436;-89
2022/08/21 08:37:40;;;;;;;8.50;2.55;;;;;;;;;;6267023;22;20090;-89
2022/08/21 08:40:10;;;;;;;8.80;2.50;;;;;;;;;;6241029;22;20008;-89
2022/08/21 08:42:36;;;;;;;7.57;2.58;;;;;;;;;;6266767;22;20530;-89
2022/08/21 08:45:05;;;;;;;8.75;3.05;;;;;;;;;;6266922;22;20467;-90
2022/08/21 08:47:33;;;;;;;5.47;2.03;;;;;;;;;;6265188;22;20459;-89
2022/08/21 08:50:11;;;;;;;9.27;2.28;;;;;;;;;;6271641;22;20019;-89
2022/08/21 08:52:42;;;;;;;9.02;2.60;;;;;;;;;;6270660;22;20011;-89
2022/08/21 08:55:11;;;;;;;13.75;2.75;;;;;;;;;;6269475;22;20018;-89
2022/08/21 08:57:38;;;;;;;8.00;2.30;;;;;;;;;;6272552;22;20014;-89
2022/08/21 09:00:08;;;;;;;10.23;2.78;;;;;;;;;;6296477;22;20478;-89
2022/08/21 09:02:34;;;;;;;8.57;3.03;;;;;;;;;;6272038;22;20393;-89
2022/08/21 09:05:00;;;;;;;13.57;3.80;;;;;;;;;;6246851;22;20431;-89
2022/08/21 09:07:38;;;;;;;6.22;2.70;;;;;;;;;;6245847;22;20109;-90
2022/08/21 09:10:19;;;;;;;15.20;2.67;;;;;;;;;;6271193;22;20019;-89
2022/08/21 09:13:05;;;;;;;6.40;2.80;;;;;;;;;;6271989;22;20395;-89
2022/08/21 09:15:33;;;;;;;15.20;2.80;;;;;;;;;;6272911;22;20050;-89
2022/08/21 09:18:24;;;;;;;8.32;2.75;;;;;;;;;;6270743;22;20438;-89
2022/08/21 09:20:54;;;;;;;17.38;2.80;;;;;;;;;;6271268;22;20007;-89
2022/08/21 09:23:28;;;;;;;10.77;3.15;;;;;;;;;;6270580;22;20003;-89
2022/08/21 09:26:13;;;;;;;12.52;3.22;;;;;;;;;;6268879;22;20511;-89
2022/08/21 09:28:42;;;;;;;7.20;2.38;;;;;;;;;;6269811;22;20475;-89
2022/08/21 09:31:15;;;;;;;10.40;2.78;;;;;;;;;;6246873;22;20069;-89
2022/08/21 09:33:41;;;;;;;12.20;2.70;;;;;;;;;;6271621;22;20017;-90
2022/08/21 09:36:07;;;;;;;11.13;2.97;;;;;;;;;;6246690;22;20015;-89
2022/08/21 09:38:36;;;;;;;11.55;2.45;;;;;;;;;;6245151;22;20016;-89
2022/08/21 09:41:07;;;;;;;10.75;2.55;;;;;;;;;;6270963;22;20027;-89
2022/08/21 09:43:40;;;;;;;10.30;3.00;;;;;;;;;;6271477;22;20031;-89
2022/08/21 09:46:06;;;;;;;11.77;3.05;;;;;;;;;;6271448;22;20017;-89
2022/08/21 09:48:39;;;;;;;10.35;2.95;;;;;;;;;;6299656;22;20435;-89
2022/08/21 09:51:07;;;;;;;7.60;2.38;;;;;;;;;;6269354;22;20513;-89
2022/08/21 09:53:34;;;;;;;7.90;3.42;;;;;;;;;;6272550;22;20491;-89
2022/08/21 09:58:49;;;;;;;12.77;3.10;;;;;;;;;;6298722;22;20042;-89
2022/08/21 10:01:17;;;;;;;9.38;2.53;;;;;;;;;;6271653;22;19999;-89
2022/08/21 10:03:44;;;;;;;7.13;2.53;;;;;;;;;;6271714;22;20067;-89
2022/08/21 10:06:11;;;;;;;11.07;2.83;;;;;;;;;;6271187;22;20003;-89
2022/08/21 10:08:38;;;;;;;8.85;2.90;;;;;;;;;;6299048;22;20010;-89
2022/08/21 10:11:15;;;;;;;8.32;2.85;;;;;;;;;;6268948;22;20343;-89
2022/08/21 10:13:44;;;;;;;5.95;2.17;;;;;;;;;;6271015;22;20014;-89
2022/08/21 10:16:10;;;;;;;10.90;2.92;;;;;;;;;;6297366;22;20014;-89
2022/08/21 10:18:52;;;;;;;8.57;2.67;;;;;;;;;;6271664;22;20007;-89
2022/08/21 10:21:23;;;;;;;7.35;2.42;;;;;;;;;;6298172;22;19999;-89
2022/08/21 10:23:49;;;;;;;9.88;2.60;;;;;;;;;;6271828;22;20105;-89
2022/08/21 10:26:35;;;;;;;13.93;2.63;;;;;;;;;;6269614;22;20296;-89
2022/08/21 10:29:28;;;;;;;8.88;2.58;;;;;;;;;;6270649;22;20079;-89
2022/08/21 10:32:06;;;;;;;9.35;2.95;;;;;;;;;;6263896;22;20007;-89
2022/08/21 10:34:47;;;;;;;9.50;3.13;;;;;;;;;;6270103;22;20115;-90
2022/08/21 10:37:13;;;;;;;9.85;2.28;;;;;;;;;;6268044;22;20390;-89
2022/08/21 10:39:42;;;;;;;9.68;2.50;;;;;;;;;;6269545;22;20038;-90
2022/08/21 10:42:24;;;;;;;8.07;2.47;;;;;;;;;;6269789;22;20011;-89
2022/08/21 10:45:08;;;;;;;9.07;2.05;;;;;;;;;;6271602;22;20011;-90
2022/08/21 10:48:00;;;;;;;7.82;2.60;;;;;;;;;;6269880;22;20003;-90
2022/08/21 10:50:49;;;;;;;7.75;2.20;;;;;;;;;;6260276;22;20789;-89
2022/08/21 10:53:18;;;;;;;10.73;2.00;;;;;;;;;;6272141;22;20042;-90
2022/08/21 10:55:45;;;;;;;6.43;1.92;;;;;;;;;;6269084;22;20038;-89
2022/08/21 10:58:19;;;;;;;7.47;2.70;;;;;;;;;;6270385;22;20003;-89
2022/08/21 11:00:49;;;;;;;7.93;2.80;;;;;;;;;;6298212;22;20792;-89
2022/08/21 11:03:24;;;;;;;11.88;2.97;;;;;;;;;;6270028;22;20004;-89
2022/08/21 11:05:52;;;;;;;9.65;3.40;;;;;;;;;;6271291;22;20056;-89
2022/08/21 11:08:27;;;;;;;10.15;3.10;;;;;;;;;;6268927;22;20597;-89
2022/08/21 11:11:03;;;;;;;13.20;3.90;;;;;;;;;;6271587;22;20041;-89
2022/08/21 11:13:51;;;;;;;35.55;10.07;;;;;;;;;;6271134;22;20018;-89
2022/08/21 11:16:32;;;;;;;37.38;7.88;;;;;;;;;;6296535;22;20041;-89
2022/08/21 11:19:05;;;;;;;24.30;5.55;;;;;;;;;;6298691;22;19999;-89
2022/08/21 11:21:40;;;;;;;9.10;3.67;;;;;;;;;;6269037;22;20088;-89
2022/08/21 11:24:09;;;;;;;17.60;3.17;;;;;;;;;;6271069;22;20382;-89
2022/08/21 11:26:39;;;;;;;26.98;8.05;;;;;;;;;;6269741;22;20497;-89
2022/08/21 11:29:12;;;;;;;10.93;3.35;;;;;;;;;;6271425;22;20427;-89
2022/08/21 11:32:01;;;;;;;6.88;2.50;;;;;;;;;;6269122;22;20007;-90
2022/08/21 11:34:44;;;;;;;8.75;3.20;;;;;;;;;;6201499;22;20007;-89
2022/08/21 11:37:29;;;;;;;8.02;2.90;;;;;;;;;;6270792;22;20320;-90
2022/08/21 11:40:08;;;;;;;8.95;3.10;;;;;;;;;;6272151;22;20650;-89
2022/08/21 11:42:39;;;;;;;19.13;4.07;;;;;;;;;;6271584;22;20003;-89
2022/08/21 11:45:23;;;;;;;7.85;2.95;;;;;;;;;;6270815;22;20022;-90
2022/08/21 11:47:59;;;;;;;11.98;2.97;;;;;;;;;;6269371;22;20007;-89
2022/08/21 11:50:31;;;;;;;9.85;3.22;;;;;;;;;;6269182;22;20017;-89
2022/08/21 11:53:11;;;;;;;11.23;2.95;;;;;;;;;;6274259;22;20435;-89
2022/08/21 11:55:47;;;;;;;7.65;2.28;;;;;;;;;;6272252;22;20464;-89
2022/08/21 11:58:32;;;;;;;7.20;2.30;;;;;;;;;;6300062;22;20470;-89
2022/08/21 12:01:01;;;;;;;13.20;6.57;;;;;;;;;;6273060;22;20090;-89
2022/08/21 12:03:29;;;;;;;29.45;15.57;;;;;;;;;;6299336;22;20026;-89
2022/08/21 12:05:58;;;;;;;17.45;6.15;;;;;;;;;;6299166;22;20031;-89
2022/08/21 12:08:29;;;;;;;17.15;8.30;;;;;;;;;;6272626;22;20015;-89
2022/08/21 12:11:21;;;;;;;18.38;7.80;;;;;;;;;;6273220;22;20007;-89
2022/08/21 12:13:53;;;;;;;10.75;3.15;;;;;;;;;;6265713;22;20010;-89
2022/08/21 12:16:30;;;;;;;14.38;3.22;;;;;;;;;;6270724;22;20009;-90
2022/08/21 12:19:07;;;;;;;5.13;2.55;;;;;;;;;;6271277;22;19999;-89
2022/08/21 12:21:34;;;;;;;10.93;3.33;;;;;;;;;;6271729;22;20019;-90
2022/08/21 12:24:05;;;;;;;9.32;1.98;;;;;;;;;;6270271;22;20000;-89
2022/08/21 12:26:33;;;;;;;12.45;2.10;;;;;;;;;;6271239;22;20086;-89
2022/08/21 12:29:05;;;;;;;6.95;2.10;;;;;;;;;;6271489;22;20007;-89
2022/08/21 12:31:31;;;;;;;5.03;1.95;;;;;;;;;;6272389;22;20533;-90
2022/08/21 12:33:59;;;;;;;6.28;2.28;;;;;;;;;;6246262;22;20447;-90
2022/08/21 12:36:41;;;;;;;8.48;2.53;;;;;;;;;;6272467;22;20340;-89
2022/08/21 12:39:11;;;;;;;10.95;2.55;;;;;;;;;;6272121;22;20004;-89
2022/08/21 12:41:44;;;;;;;4.13;2.03;;;;;;;;;;6298058;22;20083;-89
2022/08/21 12:44:13;;;;;;;6.15;2.05;;;;;;;;;;6272383;22;20450;-90
2022/08/21 12:46:45;;;;;;;7.68;1.80;;;;;;;;;;6272005;22;20518;-89
2022/08/21 12:49:26;;;;;;;6.78;2.20;;;;;;;;;;6298875;22;19999;-89
2022/08/21 12:52:06;;;;;;;8.40;3.08;;;;;;;;;;6267094;22;20022;-89
2022/08/21 12:54:37;;;;;;;7.82;2.10;;;;;;;;;;6267051;22;20020;-89
2022/08/21 12:57:04;;;;;;;8.93;1.92;;;;;;;;;;6266557;22;20006;-89
2022/08/21 12:59:31;;;;;;;7.93;2.60;;;;;;;;;;6261966;22;20468;-89
2022/08/21 13:01:59;;;;;;;9.30;2.20;;;;;;;;;;6268193;22;20011;-89
2022/08/21 13:04:32;;;;;;;10.13;1.63;;;;;;;;;;6267151;22;20004;-89
2022/08/21 13:06:59;;;;;;;5.95;2.00;;;;;;;;;;6265431;22;20138;-90
2022/08/21 13:09:27;;;;;;;8.80;2.30;;;;;;;;;;6266450;22;20003;-89
2022/08/21 13:11:53;;;;;;;4.72;1.70;;;;;;;;;;6265869;22;20464;-89
2022/08/21 13:14:40;;;;;;;3.40;1.52;;;;;;;;;;6241403;22;20042;-90
2022/08/21 13:17:07;;;;;;;5.30;1.80;;;;;;;;;;6267087;22;20003;-89
2022/08/21 13:19:33;;;;;;;3.63;1.77;;;;;;;;;;6267898;22;20000;-89
2022/08/21 13:22:00;;;;;;;6.93;2.28;;;;;;;;;;6241376;22;20031;-89
2022/08/21 13:24:34;;;;;;;3.20;1.83;;;;;;;;;;6240853;22;20089;-88
2022/08/21 13:27:00;;;;;;;4.88;1.92;;;;;;;;;;6264803;22;20443;-89
2022/08/21 13:29:31;;;;;;;6.80;1.73;;;;;;;;;;6242245;22;20330;-89
2022/08/21 13:32:00;;;;;;;8.07;1.80;;;;;;;;;;6265880;22;20252;-90
2022/08/21 13:34:27;;;;;;;4.95;1.65;;;;;;;;;;6265707;22;20031;-89
2022/08/21 13:36:56;;;;;;;6.07;1.73;;;;;;;;;;6263128;22;20093;-89
2022/08/21 13:39:22;;;;;;;6.05;2.20;;;;;;;;;;6267169;22;20010;-89
2022/08/21 13:41:51;;;;;;;4.97;2.03;;;;;;;;;;6265790;22;20004;-89
2022/08/21 13:44:18;;;;;;;7.55;2.00;;;;;;;;;;6266966;22;20024;-89
2022/08/21 13:46:44;;;;;;;5.88;1.73;;;;;;;;;;6266722;22;20010;-89
2022/08/21 13:49:11;;;;;;;12.52;2.05;;;;;;;;;;6264605;22;20007;-89
2022/08/21 13:51:37;;;;;;;5.93;1.77;;;;;;;;;;6266716;22;20440;-89
2022/08/21 13:54:14;;;;;;;8.48;2.20;;;;;;;;;;6267388;22;20011;-89
2022/08/21 13:56:45;;;;;;;5.68;2.13;;;;;;;;;;6264468;22;20019;-89
2022/08/21 13:59:12;;;;;;;7.68;2.50;;;;;;;;;;6266440;22;20482;-89
2022/08/21 14:01:39;;;;;;;12.43;2.17;;;;;;;;;;6268225;22;20036;-89
2022/08/21 14:04:05;;;;;;;7.93;1.85;;;;;;;;;;6266797;22;20023;-89
2022/08/21 14:06:37;;;;;;;7.25;1.88;;;;;;;;;;6265173;22;20046;-89
2022/08/21 14:09:15;;;;;;;4.93;2.35;;;;;;;;;;6266280;22;20107;-89
2022/08/21 14:11:41;;;;;;;6.18;2.30;;;;;;;;;;6263701;22;20505;-89
2022/08/21 14:14:16;;;;;;;8.02;1.80;;;;;;;;;;6263688;22;20419;-89
2022/08/21 14:16:47;;;;;;;8.18;1.70;;;;;;;;;;6261404;22;20073;-89
2022/08/21 14:19:24;;;;;;;5.50;2.00;;;;;;;;;;6266022;22;20176;-89
2022/08/21 14:21:50;;;;;;;7.00;1.95;;;;;;;;;;6264403;22;20367;-89
2022/08/21 14:24:23;;;;;;;6.93;1.95;;;;;;;;;;6241548;22;20012;-89
2022/08/21 14:26:53;;;;;;;6.93;1.80;;;;;;;;;;6261658;22;20085;-89
2022/08/21 14:29:20;;;;;;;5.97;2.45;;;;;;;;;;6239072;22;20591;-89
2022/08/21 14:31:54;;;;;;;7.97;2.35;;;;;;;;;;6239486;22;20011;-89
2022/08/21 14:34:21;;;;;;;6.00;1.70;;;;;;;;;;6266684;22;20208;-89
2022/08/21 14:36:48;;;;;;;7.18;1.90;;;;;;;;;;6264560;22;20435;-89
2022/08/21 14:39:14;;;;;;;11.27;2.50;;;;;;;;;;6267674;22;20022;-89
2022/08/21 14:41:42;;;;;;;3.58;1.55;;;;;;;;;;6263950;22;20029;-89
2022/08/21 14:44:09;;;;;;;9.32;1.98;;;;;;;;;;6240318;22;20007;-89
2022/08/21 14:46:35;;;;;;;8.15;2.30;;;;;;;;;;6241415;22;20490;-89
2022/08/21 14:49:02;;;;;;;12.52;2.55;;;;;;;;;;6264736;22;20018;-89